Time;durP1;ratioP1;P1;durP2;ratioP2;P2;SDS_P1;SDS_P2;PMS_P1;PMS_P2;Temp;Humidity;BMP_temperature;BMP_pressure;BME280_temperature;BME280_humidity;BME280_pressure;Samples;Min_cycle;Max_cycle;Signal;HPM_P1;HPM_P2
2021/04/03 00:01:07;;;;;;;4.83;2.47;;;;;;;4.65;85.54;100895.13;5019799;28;20291;-71
2021/04/03 00:03:33;;;;;;;5.03;3.07;;;;;;;4.67;85.96;100892.53;5027327;28;20200;-70
2021/04/03 00:05:59;;;;;;;7.10;2.53;;;;;;;4.69;86.17;100898.56;5025534;28;20563;-71
2021/04/03 00:08:27;;;;;;;3.90;2.43;;;;;;;4.68;86.12;100891.69;5025111;28;20235;-70
2021/04/03 00:10:55;;;;;;;5.20;2.33;;;;;;;4.66;86.18;100896.84;5020313;28;20200;-71
2021/04/03 00:13:25;;;;;;;4.77;2.57;;;;;;;4.67;86.42;100893.38;5025155;28;20241;-71
2021/04/03 00:15:52;;;;;;;6.87;2.70;;;;;;;4.67;86.80;100887.38;5023456;28;20257;-72
2021/04/03 00:18:18;;;;;;;4.97;2.90;;;;;;;4.65;86.38;100892.53;5016662;28;20239;-70
2021/04/03 00:20:46;;;;;;;5.33;2.90;;;;;;;4.64;86.70;100892.53;5022701;28;20630;-70
2021/04/03 00:23:12;;;;;;;5.43;2.90;;;;;;;4.61;87.08;100887.34;5019413;28;20211;-71
2021/04/03 00:25:39;;;;;;;5.80;2.50;;;;;;;4.58;86.98;100895.97;5024309;28;20204;-71
2021/04/03 00:28:05;;;;;;;5.80;2.60;;;;;;;4.55;87.41;100886.47;5022602;28;20252;-72
2021/04/03 00:30:31;;;;;;;4.07;2.50;;;;;;;4.54;87.22;100889.94;5016867;28;20293;-71
2021/04/03 00:33:00;;;;;;;4.23;2.40;;;;;;;4.54;87.88;100892.50;5020669;28;20244;-71
2021/04/03 00:35:28;;;;;;;6.23;2.73;;;;;;;4.52;87.62;100885.59;5021420;28;20773;-71
2021/04/03 00:37:56;;;;;;;5.30;2.50;;;;;;;4.52;88.15;100889.06;5023819;28;20659;-71
2021/04/03 00:40:24;;;;;;;4.47;2.77;;;;;;;4.53;88.06;100883.03;5016417;28;20204;-71
2021/04/03 00:42:52;;;;;;;5.77;2.90;;;;;;;4.52;88.10;100888.19;5023179;28;20615;-72
2021/04/03 00:45:21;;;;;;;4.60;3.03;;;;;;;4.50;88.15;100887.31;5021370;28;20231;-72
2021/04/03 00:47:47;;;;;;;3.60;2.73;;;;;;;4.48;88.24;100882.16;5015170;28;20234;-72
2021/04/03 00:50:15;;;;;;;4.83;2.70;;;;;;;4.48;88.55;100889.03;5023959;28;20224;-72
2021/04/03 00:52:42;;;;;;;7.90;2.70;;;;;;;4.47;88.88;100877.00;5023528;28;20599;-71
2021/04/03 00:55:10;;;;;;;5.43;2.97;;;;;;;4.45;88.93;100876.09;5024953;28;20223;-72
2021/04/03 00:57:39;;;;;;;8.90;3.00;;;;;;;4.43;89.27;100888.16;5003486;28;20680;-72
2021/04/03 01:00:09;;;;;;;5.63;3.03;;;;;;;4.40;89.42;100882.97;5024685;28;20199;-71
2021/04/03 01:02:37;;;;;;;5.90;2.93;;;;;;;4.39;89.90;100873.53;5016412;28;20200;-71
2021/04/03 01:05:08;;;;;;;5.70;3.03;;;;;;;4.34;90.09;100873.50;5020711;28;20193;-70
2021/04/03 01:07:35;;;;;;;5.07;2.53;;;;;;;4.33;90.28;100872.66;5012851;28;20208;-70
2021/04/03 01:10:03;;;;;;;6.40;3.27;;;;;;;4.32;90.58;100870.91;5021729;28;20261;-72
2021/04/03 01:12:36;;;;;;;5.63;2.90;;;;;;;4.34;90.58;100870.91;5021111;28;20572;-71
2021/04/03 01:15:11;;;;;;;6.77;3.17;;;;;;;4.34;91.04;100878.66;5023637;28;20667;-71
2021/04/03 01:17:50;;;;;;;7.80;3.80;;;;;;;4.30;91.24;100872.63;5026981;28;20204;-72
2021/04/03 01:20:33;;;;;;;4.80;2.97;;;;;;;4.26;91.33;100872.63;5017537;28;20203;-71
2021/04/03 01:23:28;;;;;;;6.10;2.97;;;;;;;4.23;91.62;100881.22;5019632;28;20584;-72
2021/04/03 01:26:15;;;;;;;7.13;3.77;;;;;;;4.21;91.89;100875.19;5016397;28;20606;-72
2021/04/03 01:29:04;;;;;;;6.27;3.27;;;;;;;4.23;91.98;100883.78;5023036;28;20635;-72
2021/04/03 01:31:33;;;;;;;7.87;2.77;;;;;;;4.22;92.09;100892.41;5030173;28;20204;-72
2021/04/03 01:34:02;;;;;;;7.73;3.47;;;;;;;4.24;92.31;100889.81;5027092;28;20749;-71
2021/04/03 01:36:32;;;;;;;8.83;3.33;;;;;;;4.24;92.49;100890.69;5024950;28;20617;-71
2021/04/03 01:39:02;;;;;;;8.60;3.20;;;;;;;4.24;92.62;100887.22;5025330;28;20216;-72
2021/04/03 01:41:32;;;;;;;6.40;3.40;;;;;;;4.21;92.71;100895.84;5044880;28;20204;-72
2021/04/03 01:44:02;;;;;;;5.40;3.17;;;;;;;4.18;92.90;100894.09;5020352;28;20318;-72
2021/04/03 01:46:37;;;;;;;7.13;3.77;;;;;;;4.19;92.96;100897.53;5010917;28;20688;-71
2021/04/03 01:49:09;;;;;;;4.80;2.87;;;;;;;4.17;93.10;100899.25;5020844;28;20223;-71
2021/04/03 01:51:40;;;;;;;6.90;4.07;;;;;;;4.15;93.27;100903.53;5024654;28;20214;-72
2021/04/03 01:54:10;;;;;;;10.40;3.63;;;;;;;4.13;93.25;100912.97;5023350;28;20611;-72
2021/04/03 01:57:13;;;;;;;8.13;3.67;;;;;;;4.09;93.53;100909.53;5026457;28;20660;-72
2021/04/03 01:59:58;;;;;;;7.20;3.63;;;;;;;4.10;93.94;100907.84;5020662;28;20725;-71
2021/04/03 02:02:44;;;;;;;6.77;3.80;;;;;;;4.10;93.91;100915.56;5025647;28;20192;-71
2021/04/03 02:05:16;;;;;;;5.60;3.57;;;;;;;4.10;93.98;100918.16;5036901;28;20188;-71
2021/04/03 02:07:50;;;;;;;5.03;3.40;;;;;;;4.11;93.82;100909.53;5028148;28;20302;-72
2021/04/03 02:10:22;;;;;;;8.07;3.27;;;;;;;4.09;93.85;100912.09;5029220;28;20211;-71
2021/04/03 02:12:49;;;;;;;7.77;3.90;;;;;;;4.04;94.19;100910.38;5021433;28;20231;-71
2021/04/03 02:15:40;;;;;;;6.43;3.47;;;;;;;3.96;94.34;100918.94;5024752;28;20197;-71
2021/04/03 02:18:08;;;;;;;10.10;3.50;;;;;;;3.94;94.60;100910.31;5025101;28;20216;-71
2021/04/03 02:20:42;;;;;;;8.67;3.47;;;;;;;3.86;94.59;100908.56;5024553;28;20678;-72
2021/04/03 02:23:09;;;;;;;6.13;3.90;;;;;;;3.77;94.62;100915.38;5020866;28;20199;-71
2021/04/03 02:25:35;;;;;;;7.67;3.07;;;;;;;3.70;95.01;100913.59;5028602;28;20199;-71
2021/04/03 02:28:02;;;;;;;6.83;3.67;;;;;;;3.68;95.38;100919.63;5030186;28;20771;-72
2021/04/03 02:30:36;;;;;;;9.83;3.93;;;;;;;3.63;95.68;100924.75;5024026;28;20327;-71
2021/04/03 02:33:03;;;;;;;8.80;3.53;;;;;;;3.62;95.69;100924.72;5028134;28;20210;-72
2021/04/03 02:35:33;;;;;;;8.87;3.73;;;;;;;3.60;95.68;100929.88;5029088;28;20200;-72
2021/04/03 02:38:05;;;;;;;12.27;3.77;;;;;;;3.57;96.05;100929.84;5024063;28;20220;-71
2021/04/03 02:40:38;;;;;;;8.77;4.03;;;;;;;3.52;95.90;100934.13;5029792;28;20196;-72
2021/04/03 02:43:12;;;;;;;7.93;3.93;;;;;;;3.48;96.04;100928.03;5027746;28;20211;-72
2021/04/03 02:45:44;;;;;;;8.70;3.70;;;;;;;3.44;96.34;100931.47;5023451;28;20207;-72
2021/04/03 02:48:17;;;;;;;9.30;3.40;;;;;;;3.37;96.30;100930.53;5025533;28;20227;-71
2021/04/03 02:50:50;;;;;;;6.30;3.30;;;;;;;3.30;96.34;100933.91;5001819;28;20200;-71
2021/04/03 02:53:21;;;;;;;8.03;3.53;;;;;;;3.26;96.72;100933.91;5026456;28;20350;-71
2021/04/03 02:55:49;;;;;;;6.57;3.30;;;;;;;3.18;96.93;100945.00;5030199;28;20548;-71
2021/04/03 02:58:20;;;;;;;5.57;3.20;;;;;;;3.11;97.25;100943.19;5025924;28;20223;-71
2021/04/03 03:00:47;;;;;;;6.07;3.40;;;;;;;3.02;97.16;100948.25;5025536;28;20197;-71
2021/04/03 03:03:14;;;;;;;7.77;3.70;;;;;;;2.96;97.46;100943.91;5021165;28;20247;-70
2021/04/03 03:05:44;;;;;;;8.47;3.70;;;;;;;2.93;97.95;100955.91;5022501;28;20293;-72
2021/04/03 03:08:13;;;;;;;6.47;3.40;;;;;;;2.87;97.69;100953.25;5028120;28;20228;-72
2021/04/03 03:10:41;;;;;;;8.43;3.80;;;;;;;2.81;97.91;100951.47;5030879;28;20888;-72
2021/04/03 03:13:09;;;;;;;6.33;3.50;;;;;;;2.77;98.06;100960.03;5024439;28;20219;-71
2021/04/03 03:15:36;;;;;;;7.50;3.20;;;;;;;2.69;98.28;100952.22;5028871;28;20203;-71
2021/04/03 03:18:05;;;;;;;6.60;3.47;;;;;;;2.66;98.48;100952.19;5028202;28;20218;-71
2021/04/03 03:20:35;;;;;;;5.47;3.33;;;;;;;2.62;98.62;100961.59;5028281;28;20202;-72
2021/04/03 03:23:05;;;;;;;7.80;3.70;;;;;;;2.59;98.76;100966.69;5028225;28;20202;-71
2021/04/03 03:25:33;;;;;;;9.07;3.43;;;;;;;2.57;98.96;100967.50;5024166;28;20231;-72
2021/04/03 03:28:01;;;;;;;8.67;3.50;;;;;;;2.52;98.93;100972.63;5030310;28;20772;-72
2021/04/03 03:30:31;;;;;;;5.70;3.17;;;;;;;2.47;98.77;100969.97;5023197;28;20209;-72
2021/04/03 03:33:01;;;;;;;4.77;3.23;;;;;;;2.44;99.07;100964.78;5023790;28;20299;-71
2021/04/03 03:35:28;;;;;;;6.87;3.80;;;;;;;2.37;99.17;100968.13;5016168;28;20196;-72
2021/04/03 03:37:58;;;;;;;5.87;3.50;;;;;;;2.32;99.55;100964.63;5030188;28;20233;-72
2021/04/03 03:40:25;;;;;;;7.07;3.20;;;;;;;2.29;99.93;100964.59;5029874;28;20195;-72
2021/04/03 03:42:56;;;;;;;8.47;3.83;;;;;;;2.25;100.00;100975.69;5022421;28;20192;-72
2021/04/03 03:45:26;;;;;;;13.03;6.47;;;;;;;2.18;100.00;100979.00;5036967;28;20214;-72
2021/04/03 03:47:56;;;;;;;15.80;9.97;;;;;;;2.16;100.00;100978.13;5023458;28;20219;-71
2021/04/03 03:50:24;;;;;;;8.63;6.07;;;;;;;2.03;100.00;100977.94;5025828;28;20205;-72
2021/04/03 03:52:51;;;;;;;9.40;5.37;;;;;;;2.01;100.00;100984.78;5031185;28;20222;-72
2021/04/03 03:55:18;;;;;;;8.70;4.67;;;;;;;2.00;100.00;100982.19;5025252;28;20542;-71
2021/04/03 03:57:46;;;;;;;7.03;4.30;;;;;;;1.90;100.00;100988.91;5027412;28;20229;-72
2021/04/03 04:00:15;;;;;;;6.87;3.43;;;;;;;1.89;100.00;100989.75;5028364;28;20255;-72
2021/04/03 04:02:43;;;;;;;9.70;3.90;;;;;;;1.85;100.00;100993.13;5021852;28;20275;-71
2021/04/03 04:05:18;;;;;;;6.93;3.40;;;;;;;1.78;100.00;100997.31;5023784;28;20658;-71
2021/04/03 04:07:53;;;;;;;8.13;3.53;;;;;;;1.73;100.00;100998.94;5017760;28;20287;-72
2021/04/03 04:10:21;;;;;;;8.80;3.73;;;;;;;1.75;100.00;100999.81;5018901;28;20285;-71
2021/04/03 04:12:49;;;;;;;6.00;3.30;;;;;;;1.69;100.00;100995.44;5018154;28;20235;-71
2021/04/03 04:15:19;;;;;;;6.37;3.10;;;;;;;1.72;100.00;100999.75;5021068;28;20278;-72
2021/04/03 04:17:47;;;;;;;11.30;3.50;;;;;;;1.61;100.00;100998.72;5011013;28;20233;-72
2021/04/03 04:20:15;;;;;;;9.83;3.67;;;;;;;1.55;100.00;101002.06;5020367;28;20201;-71
2021/04/03 04:22:45;;;;;;;5.57;3.30;;;;;;;1.52;100.00;101004.59;5016931;28;20192;-72
2021/04/03 04:25:12;;;;;;;8.37;4.03;;;;;;;1.50;100.00;100996.84;5025288;28;20307;-71
2021/04/03 04:27:39;;;;;;;6.60;3.97;;;;;;;1.54;100.00;101008.03;5021776;28;20202;-72
2021/04/03 04:30:11;;;;;;;8.13;4.37;;;;;;;1.40;100.00;101012.94;4999546;23;20237;-88
2021/04/03 04:32:46;;;;;;;6.77;3.47;;;;;;;1.37;100.00;101022.28;4967198;28;20855;-88
2021/04/03 04:35:17;;;;;;;4.60;3.30;;;;;;;1.37;100.00;101015.44;4965361;28;20280;-88
2021/04/03 04:37:49;;;;;;;9.90;3.90;;;;;;;1.38;100.00;101017.19;4951967;28;20193;-88
2021/04/03 04:40:16;;;;;;;5.60;3.40;;;;;;;1.38;100.00;101018.91;4964205;28;20205;-88
2021/04/03 04:42:45;;;;;;;8.80;4.10;;;;;;;1.40;100.00;101032.63;4951621;28;20194;-88
2021/04/03 04:45:17;;;;;;;4.83;3.40;;;;;;;1.40;100.00;101028.34;4952874;28;20215;-88
2021/04/03 04:47:45;;;;;;;8.80;4.07;;;;;;;1.41;100.00;101034.38;4978712;28;20208;-87
2021/04/03 04:50:14;;;;;;;8.83;3.23;;;;;;;1.36;100.00;101033.44;4965604;28;20201;-88
2021/04/03 04:52:42;;;;;;;9.93;3.90;;;;;;;1.38;100.00;101036.88;4966322;28;20445;-88
2021/04/03 04:55:11;;;;;;;11.20;3.90;;;;;;;1.41;100.00;101024.09;4967453;28;20575;-87
2021/04/03 05:00:09;;;;;;;6.57;3.60;;;;;;;1.39;100.00;101033.47;5029962;23;20247;-88
2021/04/03 05:05:15;;;;;;;8.00;3.60;;;;;;;1.39;100.00;101041.16;4957274;28;20247;-88
2021/04/03 05:07:41;;;;;;;8.23;4.30;;;;;;;1.42;100.00;101044.66;4934303;28;20316;-88
2021/04/03 05:10:10;;;;;;;8.23;4.30;;;;;;;1.43;100.00;101046.41;4948851;28;20214;-88
2021/04/03 05:15:07;;;;;;;9.30;4.17;;;;;;;1.48;100.00;101057.63;4945433;28;20223;-88
2021/04/03 05:17:34;;;;;;;12.40;4.60;;;;;;;1.48;100.00;101067.91;5006396;23;20233;-88
2021/04/03 05:22:31;;;;;;;9.47;4.20;;;;;;;1.49;100.00;101064.50;4966964;28;20270;-87
2021/04/03 05:24:59;;;;;;;13.83;4.73;;;;;;;1.49;100.00;101059.34;4970007;28;20208;-88
2021/04/03 05:29:54;;;;;;;9.67;4.50;;;;;;;1.57;100.00;101072.34;5002732;28;20576;-88
2021/04/03 05:32:24;;;;;;;9.73;4.73;;;;;;;1.61;100.00;101075.84;5002165;28;20210;-88
2021/04/03 05:37:19;;;;;;;14.90;5.10;;;;;;;1.65;100.00;101077.63;5004549;28;21558;-88
2021/04/03 05:39:49;;;;;;;8.70;4.70;;;;;;;1.66;100.00;101064.78;5041414;23;20308;-88
2021/04/03 05:42:18;;;;;;;9.60;4.40;;;;;;;1.70;100.00;101065.72;5041804;28;20729;-88
2021/04/03 05:44:46;;;;;;;13.50;4.53;;;;;;;1.76;100.00;101064.94;5046351;28;20282;-88
2021/04/03 05:47:13;;;;;;;10.80;4.50;;;;;;;1.78;100.00;101078.72;5008871;28;20226;-87
2021/04/03 05:49:41;;;;;;;12.73;4.60;;;;;;;1.82;100.00;101076.22;5042001;28;20205;-87
2021/04/03 05:52:08;;;;;;;9.27;4.13;;;;;;;1.88;100.00;101072.88;5042017;28;20258;-87
2021/04/03 05:54:37;;;;;;;11.87;4.50;;;;;;;1.93;100.00;101084.09;5040299;28;20238;-87
2021/04/03 05:57:04;;;;;;;12.77;5.10;;;;;;;2.00;100.00;101085.94;5005574;28;20206;-87
2021/04/03 06:02:01;;;;;;;12.70;4.63;;;;;;;2.14;100.00;101086.16;4961264;28;20215;-88
2021/04/03 06:04:27;;;;;;;11.40;4.60;;;;;;;2.19;100.00;101093.97;4952803;28;20753;-87
2021/04/03 06:06:59;;;;;;;13.20;5.60;;;;;;;2.28;100.00;101100.09;5007656;28;20291;-71
2021/04/03 06:09:25;;;;;;;12.87;4.90;;;;;;;2.34;100.00;101101.03;5008052;28;20667;-71
2021/04/03 06:11:52;;;;;;;11.47;5.10;;;;;;;2.44;100.00;101110.63;5010990;28;20242;-71
2021/04/03 06:14:18;;;;;;;9.43;5.20;;;;;;;2.53;100.00;101112.47;5009857;28;20599;-71
2021/04/03 06:16:46;;;;;;;13.07;5.17;;;;;;;2.62;99.86;101112.59;5025246;28;20229;-71
2021/04/03 06:19:14;;;;;;;11.43;5.00;;;;;;;2.64;98.99;101123.81;5016330;28;20212;-70
2021/04/03 06:21:43;;;;;;;9.07;4.80;;;;;;;2.62;98.55;101123.78;5009018;28;20212;-70
2021/04/03 06:24:19;;;;;;;15.43;5.40;;;;;;;2.61;98.20;101129.75;4995048;28;20196;-70
2021/04/03 06:26:57;;;;;;;13.73;5.40;;;;;;;2.57;98.06;101128.00;5003698;28;20208;-70
2021/04/03 06:29:27;;;;;;;12.60;5.70;;;;;;;2.54;97.91;101127.94;5007683;28;20313;-73
2021/04/03 06:31:55;;;;;;;11.67;4.97;;;;;;;2.63;98.17;101130.66;5004272;28;20644;-70
2021/04/03 06:34:29;;;;;;;10.47;5.37;;;;;;;2.78;97.94;101135.16;5009111;28;20279;-70
2021/04/03 06:36:55;;;;;;;10.87;5.00;;;;;;;2.92;97.47;101142.19;5009983;28;20202;-70
2021/04/03 06:39:22;;;;;;;11.20;4.77;;;;;;;3.02;96.93;101137.19;5011935;28;20244;-71
2021/04/03 06:41:48;;;;;;;18.77;5.83;;;;;;;3.18;95.92;101137.38;5008923;28;20204;-71
2021/04/03 06:44:15;;;;;;;11.13;5.30;;;;;;;3.28;94.52;101146.13;5003985;28;20212;-71
2021/04/03 06:46:50;;;;;;;13.67;4.83;;;;;;;3.38;94.50;101142.81;5014788;28;20207;-70
2021/04/03 06:49:18;;;;;;;11.20;4.90;;;;;;;3.39;93.81;101157.41;5006723;28;20594;-71
2021/04/03 06:51:45;;;;;;;12.53;5.27;;;;;;;3.40;93.36;101154.00;5007707;28;20203;-70
2021/04/03 06:54:13;;;;;;;9.40;4.83;;;;;;;3.36;92.83;101159.94;5013325;28;20231;-70
2021/04/03 06:56:39;;;;;;;9.17;4.20;;;;;;;3.31;92.76;101162.47;5007476;28;20286;-75
2021/04/03 06:59:07;;;;;;;10.13;4.73;;;;;;;3.38;92.20;101171.16;5010077;28;20227;-71
2021/04/03 07:01:45;;;;;;;13.23;4.63;;;;;;;3.33;92.13;101175.38;5005563;28;20201;-70
2021/04/03 07:04:22;;;;;;;9.20;4.50;;;;;;;3.34;92.48;101166.78;4995425;28;20231;-71
2021/04/03 07:06:49;;;;;;;10.27;4.10;;;;;;;3.45;92.46;101174.66;5005042;28;20724;-70
2021/04/03 07:09:18;;;;;;;14.87;4.07;;;;;;;3.63;91.28;101181.75;5006885;28;20730;-71
2021/04/03 07:11:46;;;;;;;10.03;4.57;;;;;;;3.78;90.95;101189.63;5005497;28;20675;-71
2021/04/03 07:14:14;;;;;;;9.07;4.53;;;;;;;3.92;90.44;101189.78;5004385;28;20310;-70
2021/04/03 07:16:43;;;;;;;9.97;3.90;;;;;;;4.00;90.34;101183.00;5006085;28;20201;-70
2021/04/03 07:19:10;;;;;;;8.20;3.70;;;;;;;4.02;90.34;101190.75;5003437;28;20232;-70
2021/04/03 07:21:36;;;;;;;7.27;4.17;;;;;;;4.04;90.03;101196.78;5014926;28;20205;-70
2021/04/03 07:24:03;;;;;;;5.70;3.10;;;;;;;4.02;88.77;101206.25;5007385;28;20207;-70
2021/04/03 07:26:30;;;;;;;7.03;3.53;;;;;;;4.05;88.25;101199.41;5010114;28;20427;-71
2021/04/03 07:28:56;;;;;;;7.10;3.70;;;;;;;4.17;88.00;101203.81;5006706;28;20225;-70
2021/04/03 07:31:41;;;;;;;10.17;4.67;;;;;;;4.45;87.49;101209.22;5005426;28;20196;-71
2021/04/03 07:34:09;;;;;;;7.97;4.00;;;;;;;4.57;86.76;101208.44;5004955;28;20216;-71
2021/04/03 07:36:37;;;;;;;7.80;3.43;;;;;;;4.68;85.57;101207.69;5010425;28;20203;-70
2021/04/03 07:39:05;;;;;;;7.47;4.17;;;;;;;4.74;84.56;101215.47;5003749;28;20232;-70
2021/04/03 07:41:37;;;;;;;7.03;3.60;;;;;;;5.03;84.70;101216.50;4990573;28;20345;-71
2021/04/03 07:44:12;;;;;;;8.57;3.87;;;;;;;5.09;82.31;101226.91;5008010;28;20284;-71
2021/04/03 07:46:41;;;;;;;7.13;4.10;;;;;;;4.95;82.75;101231.97;5006518;28;20392;-71
2021/04/03 07:49:10;;;;;;;7.53;3.80;;;;;;;4.88;81.65;101240.56;4989827;28;20212;-71
2021/04/03 07:51:44;;;;;;;7.90;4.13;;;;;;;4.92;81.78;101239.72;5003154;28;20211;-71
2021/04/03 07:54:29;;;;;;;9.97;3.93;;;;;;;4.96;81.21;101244.06;5011842;28;20206;-70
2021/04/03 07:57:01;;;;;;;5.10;3.00;;;;;;;5.12;81.17;101243.31;5002674;28;20204;-70
2021/04/03 08:00:00;;;;;;;6.20;3.87;;;;;;;5.32;80.89;101253.75;5009360;28;20220;-70
2021/04/03 08:02:27;;;;;;;6.40;3.23;;;;;;;5.48;79.36;101256.41;5002557;28;20209;-71
2021/04/03 08:04:56;;;;;;;4.40;2.67;;;;;;;5.69;78.01;101263.41;5009643;28;20273;-71
2021/04/03 08:07:24;;;;;;;6.70;3.37;;;;;;;5.83;77.47;101261.75;5005607;28;20852;-70
2021/04/03 08:09:50;;;;;;;5.83;2.73;;;;;;;5.86;76.36;101258.31;5003316;28;20331;-71
2021/04/03 08:12:20;;;;;;;5.00;2.63;;;;;;;5.95;75.12;101265.25;5011451;28;20559;-71
2021/04/03 08:14:51;;;;;;;7.43;2.70;;;;;;;6.01;74.96;101267.88;5000755;28;20235;-71
2021/04/03 08:17:21;;;;;;;4.10;2.53;;;;;;;6.08;73.74;101269.63;5004570;28;20194;-70
2021/04/03 08:19:48;;;;;;;4.10;2.40;;;;;;;6.07;72.31;101273.09;5002688;28;20699;-71
2021/04/03 08:22:15;;;;;;;5.00;3.10;;;;;;;6.23;75.00;101267.06;5004649;28;20204;-71
2021/04/03 08:24:54;;;;;;;5.13;3.23;;;;;;;6.29;72.98;101273.97;5002429;28;20275;-70
2021/04/03 08:27:31;;;;;;;4.07;2.43;;;;;;;6.33;72.46;101273.16;5002785;28;20691;-70
2021/04/03 08:37:32;;;;;;;4.10;3.03;;;;;;;7.01;71.13;101275.75;5002923;28;20204;-71
2021/04/03 08:39:58;;;;;;;3.80;2.70;;;;;;;7.16;70.39;101273.13;5002706;28;20235;-70
2021/04/03 08:42:24;;;;;;;3.70;2.03;;;;;;;7.09;68.03;101280.91;4986965;28;20295;-70
2021/04/03 08:44:50;;;;;;;3.23;2.07;;;;;;;6.97;68.11;101287.84;5014575;28;20196;-70
2021/04/03 08:47:18;;;;;;;3.10;1.90;;;;;;;6.72;67.60;101286.09;5014611;28;20778;-71
2021/04/03 08:49:44;;;;;;;2.63;1.80;;;;;;;6.74;67.96;101274.91;5011033;28;20323;-70
2021/04/03 08:52:11;;;;;;;4.03;1.60;;;;;;;6.68;65.80;101282.66;5009259;28;20212;-70
2021/04/03 08:54:39;;;;;;;1.57;1.40;;;;;;;6.59;65.38;101288.69;5010596;28;20671;-71
2021/04/03 08:57:20;;;;;;;3.73;1.87;;;;;;;6.67;65.39;101291.31;5012572;28;20192;-70
2021/04/03 08:59:46;;;;;;;2.77;1.70;;;;;;;7.01;64.22;101286.13;5007229;28;20224;-70
2021/04/03 09:02:12;;;;;;;1.40;1.10;;;;;;;7.31;64.14;101282.59;5008320;28;20824;-70
2021/04/03 09:04:38;;;;;;;4.07;1.60;;;;;;;7.70;62.59;101285.94;5008035;28;20216;-71
2021/04/03 09:07:04;;;;;;;1.70;1.40;;;;;;;8.07;63.34;101290.13;5011593;28;20193;-70
2021/04/03 09:09:31;;;;;;;4.00;1.47;;;;;;;7.73;61.95;101291.13;5008317;28;20727;-71
2021/04/03 09:12:00;;;;;;;2.63;1.53;;;;;;;7.54;62.12;101289.47;5010742;28;20188;-70
2021/04/03 09:14:28;;;;;;;4.17;2.07;;;;;;;7.52;61.19;101289.47;5009710;28;20220;-71
2021/04/03 09:16:54;;;;;;;1.37;1.20;;;;;;;7.48;59.67;101299.88;5011496;28;20226;-71
2021/04/03 09:19:25;;;;;;;1.13;1.00;;;;;;;7.37;60.74;101302.50;5014669;28;20498;-71
2021/04/03 09:21:51;;;;;;;1.60;1.30;;;;;;;7.45;59.14;101303.31;5006970;28;20255;-71
2021/04/03 09:24:32;;;;;;;1.30;0.90;;;;;;;7.53;57.18;101303.31;5012427;28;20189;-71
2021/04/03 09:27:10;;;;;;;1.63;1.33;;;;;;;7.63;56.76;101305.00;5005414;28;20204;-70
2021/04/03 09:29:37;;;;;;;1.60;1.30;;;;;;;7.41;56.58;101306.81;5004041;28;20224;-71
2021/04/03 09:32:04;;;;;;;2.40;1.47;;;;;;;7.71;56.80;101294.63;5005602;28;20266;-71
2021/04/03 09:34:31;;;;;;;2.00;1.13;;;;;;;8.01;54.18;101303.16;5006785;28;20210;-70
2021/04/03 09:36:57;;;;;;;1.40;1.13;;;;;;;8.14;52.87;101313.47;5009694;28;20193;-71
2021/04/03 09:39:23;;;;;;;1.30;1.10;;;;;;;8.27;53.31;101297.81;5004612;28;20287;-71
2021/04/03 09:41:52;;;;;;;2.17;1.10;;;;;;;8.18;52.21;101300.44;5011190;28;20207;-71
2021/04/03 09:44:18;;;;;;;1.80;1.20;;;;;;;7.94;51.48;101300.56;4986476;28;20201;-70
2021/04/03 09:46:46;;;;;;;1.10;1.00;;;;;;;7.80;50.09;101312.75;5007811;28;20276;-71
2021/04/03 09:49:12;;;;;;;1.13;1.00;;;;;;;7.61;50.08;101308.47;5007031;28;20292;-71
2021/04/03 09:51:39;;;;;;;2.20;1.23;;;;;;;7.51;48.73;101321.50;5011024;28;20212;-71
2021/04/03 09:54:06;;;;;;;1.20;0.97;;;;;;;7.44;48.79;101318.91;5004038;28;20240;-70
2021/04/03 09:56:32;;;;;;;2.20;0.90;;;;;;;7.46;46.58;101327.53;5005318;28;20197;-70
2021/04/03 09:58:59;;;;;;;1.30;1.20;;;;;;;7.50;46.84;101335.31;5010218;28;20302;-71
2021/04/03 10:01:25;;;;;;;1.10;1.00;;;;;;;7.50;46.94;101321.50;5011932;28;20599;-71
2021/04/03 10:03:53;;;;;;;2.63;0.97;;;;;;;7.55;47.87;101312.81;5010039;28;20251;-71
2021/04/03 10:06:21;;;;;;;1.30;1.00;;;;;;;7.65;47.33;101313.69;5007978;28;20205;-70
2021/04/03 10:08:47;;;;;;;1.60;0.90;;;;;;;7.64;45.76;101324.91;5010391;28;20228;-71
2021/04/03 10:11:14;;;;;;;2.23;1.40;;;;;;;7.70;44.74;101329.22;5005871;28;20210;-70
2021/04/03 10:13:40;;;;;;;1.83;1.47;;;;;;;7.74;44.99;101326.63;5006950;28;20233;-71
2021/04/03 10:16:06;;;;;;;2.77;0.93;;;;;;;7.72;42.83;101335.25;5009136;28;20408;-70
2021/04/03 10:18:33;;;;;;;2.83;1.60;;;;;;;7.77;43.16;101338.72;5006806;28;20259;-71
2021/04/03 10:20:59;;;;;;;1.13;0.87;;;;;;;7.73;41.93;101337.84;5003037;28;20676;-70
2021/04/03 10:23:25;;;;;;;4.30;1.50;;;;;;;7.71;42.34;101338.75;5003637;28;20205;-71
2021/04/03 10:25:51;;;;;;;3.10;1.10;;;;;;;7.58;43.15;101338.78;4989820;28;20213;-71
2021/04/03 10:28:17;;;;;;;1.43;0.93;;;;;;;7.47;42.38;101345.69;5004393;28;20205;-70
2021/04/03 10:30:43;;;;;;;1.03;0.90;;;;;;;7.38;40.19;101350.91;5008844;28;20204;-71
2021/04/03 10:33:09;;;;;;;3.20;1.53;;;;;;;7.27;41.13;101345.75;5013769;28;20211;-71
2021/04/03 10:35:36;;;;;;;1.10;1.00;;;;;;;7.34;41.03;101351.78;5002434;28;20193;-71
2021/04/03 10:38:02;;;;;;;2.07;1.07;;;;;;;7.45;40.84;101347.44;5008939;28;20229;-70
2021/04/03 10:40:28;;;;;;;2.37;1.20;;;;;;;7.54;41.78;101339.63;5001388;28;20212;-70
2021/04/03 10:42:54;;;;;;;2.67;0.90;;;;;;;7.58;41.28;101333.59;5008870;28;20211;-71
2021/04/03 10:45:20;;;;;;;3.20;1.30;;;;;;;7.59;40.08;101340.47;5000841;28;20192;-71
2021/04/03 10:47:47;;;;;;;2.50;1.40;;;;;;;7.70;40.63;101331.81;5006223;28;20692;-71
2021/04/03 10:50:14;;;;;;;1.93;1.23;;;;;;;7.63;41.65;101330.97;5010837;28;20219;-70
2021/04/03 10:52:40;;;;;;;1.90;0.73;;;;;;;7.74;42.12;101328.34;5005749;28;20201;-70
2021/04/03 10:55:07;;;;;;;0.90;0.87;;;;;;;7.77;42.06;101331.81;5005400;28;20216;-71
2021/04/03 10:57:33;;;;;;;0.97;0.77;;;;;;;7.80;42.09;101336.09;5004437;28;20566;-71
2021/04/03 11:00:00;;;;;;;3.00;1.80;;;;;;;7.86;42.68;101332.63;5010511;28;20624;-71
2021/04/03 11:02:26;;;;;;;4.13;1.90;;;;;;;7.87;42.03;101339.56;5005932;28;21029;-71
2021/04/03 11:04:52;;;;;;;2.53;1.70;;;;;;;7.88;41.74;101349.94;5000763;28;20484;-71
2021/04/03 11:07:19;;;;;;;2.97;1.80;;;;;;;7.89;42.18;101348.19;5004679;28;20200;-71
2021/04/03 11:09:45;;;;;;;3.90;1.80;;;;;;;7.87;42.50;101342.16;5004362;28;20225;-70
2021/04/03 11:12:13;;;;;;;1.67;1.50;;;;;;;7.82;42.57;101336.97;5005076;28;20220;-71
2021/04/03 11:14:40;;;;;;;1.50;1.33;;;;;;;7.77;41.81;101342.19;5001945;28;20224;-70
2021/04/03 11:17:06;;;;;;;2.63;1.73;;;;;;;7.65;42.36;101343.94;5005306;28;20201;-71
2021/04/03 11:19:32;;;;;;;1.80;1.10;;;;;;;7.51;42.67;101339.66;5003768;28;20267;-71
2021/04/03 11:21:58;;;;;;;3.63;1.87;;;;;;;7.49;43.72;101348.28;5006023;28;20549;-72
2021/04/03 11:24:25;;;;;;;2.50;1.50;;;;;;;7.38;44.41;101354.34;4991433;28;20846;-71
2021/04/03 11:26:52;;;;;;;0.90;0.80;;;;;;;7.16;48.43;101352.69;5005279;28;20299;-71
2021/04/03 11:29:18;;;;;;;1.47;1.00;;;;;;;6.88;50.52;101360.44;5014693;28;20695;-71
2021/04/03 11:31:44;;;;;;;2.27;0.90;;;;;;;6.70;51.34;101361.28;5004991;28;20721;-71
2021/04/03 11:34:10;;;;;;;1.43;1.20;;;;;;;6.63;52.10;101355.22;5006246;28;20213;-71
2021/04/03 11:36:36;;;;;;;1.23;0.67;;;;;;;6.48;52.29;101354.34;5007590;28;20197;-70
2021/04/03 11:39:02;;;;;;;1.00;0.80;;;;;;;6.39;52.28;101355.19;5009554;28;20216;-71
2021/04/03 11:41:28;;;;;;;1.23;0.70;;;;;;;6.33;52.55;101357.72;5003772;28;20212;-71
2021/04/03 11:43:56;;;;;;;0.70;0.70;;;;;;;6.24;51.84;101364.63;5002125;28;20204;-71
2021/04/03 11:46:22;;;;;;;1.57;0.60;;;;;;;6.18;51.06;101379.28;5010248;28;20395;-71
2021/04/03 11:48:48;;;;;;;0.80;0.80;;;;;;;6.24;53.51;101368.91;5002964;28;20655;-71
2021/04/03 11:51:14;;;;;;;1.90;0.93;;;;;;;6.24;54.08;101358.56;5007708;28;20204;-71
2021/04/03 11:53:41;;;;;;;1.73;1.30;;;;;;;6.25;54.80;101355.97;5004273;28;20212;-70
2021/04/03 11:56:07;;;;;;;2.20;1.10;;;;;;;6.31;54.73;101349.09;5006761;28;20668;-71
2021/04/03 11:58:33;;;;;;;1.50;1.40;;;;;;;6.44;55.54;101350.88;5010101;28;20580;-71
2021/04/03 12:01:01;;;;;;;3.27;1.13;;;;;;;6.51;54.39;101354.31;4996074;28;20753;-71
2021/04/03 12:03:27;;;;;;;1.60;1.00;;;;;;;6.53;54.20;101345.69;5006098;28;20395;-71
2021/04/03 12:05:53;;;;;;;0.90;0.70;;;;;;;6.62;52.53;101343.13;5005821;28;20683;-71